Time;durP1;ratioP1;P1;durP2;ratioP2;P2;SDS_P1;SDS_P2;PMS_P1;PMS_P2;Temp;Humidity;BMP_temperature;BMP_pressure;BME280_temperature;BME280_humidity;BME280_pressure;Samples;Min_cycle;Max_cycle;Signal;HPM_P1;HPM_P2
2023/07/20 00:01:57;;;;;;;3.83;3.53;;;18.40;99.90;;;;;;5046200;28;20047;-42
2023/07/20 00:04:23;;;;;;;3.63;2.90;;;18.30;99.90;;;;;;5045917;28;20357;-42
2023/07/20 00:06:48;;;;;;;3.78;3.03;;;18.30;99.90;;;;;;5045172;28;20025;-42
2023/07/20 00:09:17;;;;;;;3.67;3.33;;;18.30;99.90;;;;;;5045893;28;20053;-42
2023/07/20 00:11:50;;;;;;;2.92;2.63;;;18.20;99.90;;;;;;5044649;28;20024;-42
2023/07/20 00:14:16;;;;;;;4.72;3.00;;;18.20;99.90;;;;;;5045967;28;20785;-42
2023/07/20 00:16:41;;;;;;;3.08;2.75;;;18.10;99.90;;;;;;5046308;28;20017;-44
2023/07/20 00:19:08;;;;;;;4.03;3.40;;;18.10;99.90;;;;;;5045559;28;20100;-42
2023/07/20 00:21:33;;;;;;;4.75;3.42;;;18.00;99.90;;;;;;5046790;28;20414;-42
2023/07/20 00:23:59;;;;;;;4.30;3.58;;;17.90;99.90;;;;;;5045555;28;20468;-43
2023/07/20 00:26:24;;;;;;;4.03;3.58;;;17.80;99.90;;;;;;5045798;28;20025;-42
2023/07/20 00:28:51;;;;;;;3.90;3.50;;;17.90;99.90;;;;;;5044996;28;20136;-42
2023/07/20 00:31:17;;;;;;;4.82;3.58;;;17.90;99.90;;;;;;5045951;28;20132;-43
2023/07/20 00:33:42;;;;;;;3.80;3.50;;;17.90;99.90;;;;;;5046372;28;20135;-42
2023/07/20 00:36:08;;;;;;;4.13;3.40;;;17.90;99.90;;;;;;5045562;28;20029;-42
2023/07/20 00:38:34;;;;;;;3.95;3.08;;;17.90;99.90;;;;;;5044734;28;20036;-42
2023/07/20 00:40:59;;;;;;;4.45;3.35;;;17.90;99.90;;;;;;5044292;28;20021;-42
2023/07/20 00:43:25;;;;;;;5.97;3.95;;;17.80;99.90;;;;;;5045423;28;20059;-42
2023/07/20 00:45:51;;;;;;;4.82;3.75;;;17.80;99.90;;;;;;5045061;28;20029;-42
2023/07/20 00:48:16;;;;;;;5.22;3.70;;;17.80;99.90;;;;;;5044481;28;20139;-42
2023/07/20 00:50:42;;;;;;;3.22;3.00;;;17.80;99.90;;;;;;5045159;28;20024;-42
2023/07/20 00:53:08;;;;;;;3.85;2.78;;;17.80;99.90;;;;;;5044127;28;20037;-43
2023/07/20 00:55:34;;;;;;;3.33;3.03;;;17.80;99.90;;;;;;5044327;28;20044;-42
2023/07/20 00:58:00;;;;;;;3.72;3.30;;;17.80;99.90;;;;;;5045351;28;20029;-43
2023/07/20 01:00:26;;;;;;;4.07;3.67;;;17.80;99.90;;;;;;5046107;28;20653;-42
2023/07/20 01:02:52;;;;;;;4.15;2.92;;;17.70;99.90;;;;;;5044854;28;20021;-42
2023/07/20 01:05:17;;;;;;;4.25;3.53;;;17.60;99.90;;;;;;5044481;28;20017;-43
2023/07/20 01:07:47;;;;;;;3.67;3.35;;;17.60;99.90;;;;;;5044727;28;20808;-42
2023/07/20 01:10:21;;;;;;;4.28;3.80;;;17.60;99.90;;;;;;5044392;28;20036;-43
2023/07/20 01:12:51;;;;;;;6.32;3.25;;;17.50;99.90;;;;;;5045011;28;20021;-43
2023/07/20 01:15:16;;;;;;;3.63;3.00;;;17.50;99.90;;;;;;5044508;28;20033;-40
2023/07/20 01:17:42;;;;;;;4.65;3.90;;;17.40;99.90;;;;;;5045156;28;20431;-41
2023/07/20 01:20:09;;;;;;;4.53;3.53;;;17.40;99.90;;;;;;5044803;28;20071;-42
2023/07/20 01:22:49;;;;;;;3.65;3.05;;;17.30;99.90;;;;;;5044414;28;20559;-42
2023/07/20 01:25:53;;;;;;;3.47;3.08;;;17.20;99.90;;;;;;5045513;28;20116;-42
2023/07/20 01:28:49;;;;;;;3.65;3.30;;;17.20;99.90;;;;;;5024971;28;20496;-41
2023/07/20 01:31:31;;;;;;;3.40;3.10;;;17.20;99.90;;;;;;5043886;28;20184;-42
2023/07/20 01:34:01;;;;;;;3.27;2.87;;;17.10;99.90;;;;;;5044846;28;20724;-42
2023/07/20 01:36:30;;;;;;;3.03;2.72;;;17.10;99.90;;;;;;5043240;28;20613;-42
2023/07/20 01:38:56;;;;;;;3.83;2.90;;;17.10;99.90;;;;;;5044669;28;20255;-42
2023/07/20 01:41:22;;;;;;;2.60;2.40;;;17.20;99.90;;;;;;5043928;28;20021;-41
2023/07/20 01:43:48;;;;;;;3.70;2.80;;;17.30;99.90;;;;;;5044605;28;20083;-41
2023/07/20 01:46:14;;;;;;;3.80;2.83;;;17.30;99.90;;;;;;5044443;28;20423;-42
2023/07/20 01:48:39;;;;;;;3.00;2.65;;;17.40;99.90;;;;;;5044501;28;20420;-42
2023/07/20 01:51:05;;;;;;;2.65;2.45;;;17.40;99.90;;;;;;5043490;28;20459;-41
2023/07/20 01:53:30;;;;;;;2.60;2.40;;;17.40;99.90;;;;;;5043907;28;20041;-42
2023/07/20 01:55:57;;;;;;;2.55;2.05;;;17.40;99.90;;;;;;5044637;28;20496;-41
2023/07/20 01:58:23;;;;;;;2.55;2.10;;;17.30;99.90;;;;;;5044032;28;20481;-42
2023/07/20 02:00:48;;;;;;;2.83;2.60;;;17.30;99.90;;;;;;5044837;28;20029;-42
2023/07/20 02:03:14;;;;;;;2.53;2.25;;;17.20;99.90;;;;;;5044573;28;20017;-42
2023/07/20 02:05:48;;;;;;;2.80;2.47;;;17.20;99.90;;;;;;5045583;28;20463;-42
2023/07/20 02:08:13;;;;;;;3.28;2.72;;;17.10;99.90;;;;;;5048527;28;20052;-42
2023/07/20 02:10:39;;;;;;;3.17;2.78;;;17.10;99.90;;;;;;5047823;28;20028;-41
2023/07/20 02:13:08;;;;;;;3.55;2.75;;;17.10;99.90;;;;;;5047056;28;20099;-42
2023/07/20 02:15:40;;;;;;;2.45;2.25;;;17.20;99.90;;;;;;5048012;28;20032;-43
2023/07/20 02:18:08;;;;;;;2.05;1.95;;;17.20;99.90;;;;;;5047833;28;20400;-42
2023/07/20 02:20:35;;;;;;;2.67;2.25;;;17.10;99.90;;;;;;5048224;28;20025;-43
2023/07/20 02:23:00;;;;;;;3.50;2.72;;;17.10;99.90;;;;;;5047332;28;20025;-42
2023/07/20 02:25:26;;;;;;;2.08;1.92;;;17.20;99.90;;;;;;5047673;28;20052;-45
2023/07/20 02:27:56;;;;;;;2.22;2.03;;;17.20;99.90;;;;;;5047964;28;20606;-43
2023/07/20 02:30:21;;;;;;;2.28;2.08;;;17.20;99.90;;;;;;5047526;28;20040;-42
2023/07/20 02:32:48;;;;;;;1.98;1.88;;;17.20;99.90;;;;;;5046735;28;20017;-42
2023/07/20 02:35:15;;;;;;;2.70;2.10;;;17.10;99.90;;;;;;5047885;28;20071;-42
2023/07/20 02:37:40;;;;;;;2.13;1.92;;;17.00;99.90;;;;;;5047473;28;20036;-41
2023/07/20 02:40:07;;;;;;;1.50;1.40;;;17.00;99.90;;;;;;5046828;28;20021;-42
2023/07/20 02:42:33;;;;;;;2.30;2.10;;;16.90;99.90;;;;;;5047422;28;20082;-41
2023/07/20 02:45:11;;;;;;;2.22;2.03;;;16.90;99.90;;;;;;5047365;28;20021;-42
2023/07/20 02:47:36;;;;;;;1.70;1.60;;;16.80;99.90;;;;;;5046781;28;20021;-43
2023/07/20 02:50:03;;;;;;;1.80;1.70;;;16.80;99.90;;;;;;5047228;28;20021;-42
2023/07/20 02:52:29;;;;;;;2.45;2.20;;;16.70;99.90;;;;;;5047428;28;20393;-43
2023/07/20 02:54:55;;;;;;;1.90;1.73;;;16.60;99.90;;;;;;5046925;28;20129;-41
2023/07/20 02:57:20;;;;;;;1.88;1.75;;;16.50;99.90;;;;;;5047043;28;20406;-41
2023/07/20 02:59:46;;;;;;;2.40;2.20;;;16.40;99.90;;;;;;5047595;28;20064;-42
2023/07/20 03:02:12;;;;;;;1.90;1.70;;;16.40;99.90;;;;;;5047096;28;20025;-42
2023/07/20 03:04:58;;;;;;;2.20;1.90;;;16.40;99.90;;;;;;5047250;28;20587;-42
2023/07/20 03:07:26;;;;;;;2.20;2.00;;;16.40;99.90;;;;;;5046847;28;20037;-42
2023/07/20 03:09:55;;;;;;;2.25;2.03;;;16.30;99.90;;;;;;5046864;28;20063;-44
2023/07/20 03:12:24;;;;;;;2.80;2.53;;;16.30;99.90;;;;;;5047524;28;20060;-41
2023/07/20 03:14:50;;;;;;;2.15;1.92;;;16.20;99.90;;;;;;5045934;28;20041;-42
2023/07/20 03:17:20;;;;;;;2.40;2.20;;;16.20;99.90;;;;;;5046095;28;20024;-41
2023/07/20 03:19:46;;;;;;;3.97;2.10;;;16.10;99.90;;;;;;5047025;28;20029;-42
2023/07/20 03:22:11;;;;;;;2.65;2.30;;;16.10;99.90;;;;;;5045961;28;20380;-42
2023/07/20 03:24:37;;;;;;;2.75;2.30;;;16.00;99.90;;;;;;5046537;28;20048;-42
2023/07/20 03:27:05;;;;;;;2.50;2.30;;;16.00;99.90;;;;;;5046984;28;20032;-42
2023/07/20 03:29:33;;;;;;;2.00;1.90;;;16.00;99.90;;;;;;5045971;28;20404;-42
2023/07/20 03:31:59;;;;;;;2.78;2.25;;;16.00;99.90;;;;;;5046870;28;20025;-42
2023/07/20 03:34:25;;;;;;;2.40;2.20;;;16.00;99.90;;;;;;5046567;28;20086;-42
2023/07/20 03:36:50;;;;;;;2.28;2.03;;;16.00;99.90;;;;;;5045592;28;20116;-43
2023/07/20 03:39:16;;;;;;;3.33;2.30;;;16.00;99.90;;;;;;5046848;28;20052;-43
2023/07/20 03:41:43;;;;;;;2.88;2.67;;;15.90;99.90;;;;;;5046660;28;20457;-42
2023/07/20 03:44:08;;;;;;;2.70;2.50;;;15.90;99.90;;;;;;5045389;28;20029;-42
2023/07/20 03:46:34;;;;;;;2.40;2.20;;;15.90;99.90;;;;;;5046392;28;20035;-42
2023/07/20 03:49:00;;;;;;;3.88;2.30;;;16.00;99.90;;;;;;5046191;28;20040;-42
2023/07/20 03:51:26;;;;;;;2.22;2.03;;;16.00;99.90;;;;;;5045390;28;20040;-42
2023/07/20 03:53:51;;;;;;;2.08;1.88;;;16.00;99.90;;;;;;5046179;28;20760;-42
2023/07/20 03:56:17;;;;;;;2.38;2.17;;;15.90;99.90;;;;;;5045505;28;20469;-41
2023/07/20 03:58:43;;;;;;;3.67;2.40;;;15.90;99.90;;;;;;5045393;28;20028;-41
2023/07/20 04:01:09;;;;;;;2.28;2.05;;;15.90;99.90;;;;;;5046029;28;20416;-42
2023/07/20 04:03:37;;;;;;;2.75;2.55;;;15.90;99.90;;;;;;5046772;28;20035;-42
2023/07/20 04:06:03;;;;;;;2.20;2.00;;;15.90;99.90;;;;;;5045408;28;20021;-42
2023/07/20 04:08:29;;;;;;;2.67;2.47;;;16.00;99.90;;;;;;5046141;28;20064;-42
2023/07/20 04:10:54;;;;;;;2.53;2.33;;;16.00;99.90;;;;;;5045139;28;20033;-41
2023/07/20 04:13:20;;;;;;;3.20;2.30;;;16.10;99.90;;;;;;5046006;28;20465;-42
2023/07/20 04:15:46;;;;;;;2.55;2.35;;;16.10;99.90;;;;;;5045711;28;20029;-42
2023/07/20 04:18:14;;;;;;;2.67;1.73;;;16.10;99.90;;;;;;5045820;28;20021;-42
2023/07/20 04:20:42;;;;;;;1.88;1.77;;;16.10;99.90;;;;;;5045694;28;20187;-42
2023/07/20 04:23:08;;;;;;;2.08;1.83;;;16.00;99.90;;;;;;5046270;28;20025;-42
2023/07/20 04:25:38;;;;;;;1.90;1.80;;;15.90;99.90;;;;;;5044925;28;20044;-42
2023/07/20 04:28:08;;;;;;;2.22;1.90;;;15.90;99.90;;;;;;5044656;28;20044;-41
2023/07/20 04:30:35;;;;;;;1.65;1.55;;;15.90;99.90;;;;;;5045706;28;20028;-41
2023/07/20 04:33:00;;;;;;;1.63;1.52;;;15.90;99.90;;;;;;5044276;28;20762;-41
2023/07/20 04:35:44;;;;;;;2.00;1.80;;;15.90;99.90;;;;;;5045581;28;20053;-41
2023/07/20 04:38:15;;;;;;;2.03;1.80;;;15.80;99.90;;;;;;5034960;28;20060;-42
2023/07/20 04:40:41;;;;;;;2.00;1.80;;;15.80;99.90;;;;;;5044854;28;20025;-42
2023/07/20 04:43:07;;;;;;;2.00;1.80;;;15.70;99.90;;;;;;5045039;28;20029;-42
2023/07/20 04:45:32;;;;;;;2.50;2.30;;;15.70;99.90;;;;;;5044982;28;20028;-42
2023/07/20 04:47:58;;;;;;;3.15;2.25;;;15.70;99.90;;;;;;5044552;28;20111;-41
2023/07/20 04:50:25;;;;;;;2.20;2.00;;;15.60;99.90;;;;;;5045458;28;20021;-41
2023/07/20 04:52:51;;;;;;;2.53;2.00;;;15.60;99.90;;;;;;5045166;28;20203;-41
2023/07/20 04:55:16;;;;;;;2.08;1.98;;;15.60;99.90;;;;;;5044629;28;20044;-41
2023/07/20 04:57:42;;;;;;;2.50;2.30;;;15.60;99.90;;;;;;5044548;28;20024;-42
2023/07/20 05:00:11;;;;;;;2.10;2.00;;;15.60;99.90;;;;;;5024769;28;20052;-42
2023/07/20 05:02:36;;;;;;;2.65;2.45;;;15.60;99.90;;;;;;5039948;28;20110;-42
2023/07/20 05:05:02;;;;;;;2.03;1.83;;;15.70;99.90;;;;;;5045324;28;20492;-42
2023/07/20 05:07:28;;;;;;;1.70;1.60;;;15.70;99.90;;;;;;5044390;28;20569;-42
2023/07/20 05:09:54;;;;;;;2.20;2.05;;;15.70;99.90;;;;;;5044493;28;20116;-42
2023/07/20 05:12:20;;;;;;;2.30;2.10;;;15.70;99.90;;;;;;5045168;28;20108;-43
2023/07/20 05:14:46;;;;;;;2.47;2.28;;;15.70;99.90;;;;;;5044432;28;20029;-42
2023/07/20 05:17:11;;;;;;;2.38;2.17;;;15.70;99.90;;;;;;5045135;28;20199;-41
2023/07/20 05:19:37;;;;;;;3.03;2.75;;;15.70;99.90;;;;;;5044961;28;20476;-41
2023/07/20 05:22:04;;;;;;;2.53;2.33;;;15.70;99.90;;;;;;5043852;28;20028;-41
2023/07/20 05:24:29;;;;;;;2.35;2.15;;;15.80;99.90;;;;;;5045621;28;20037;-41
2023/07/20 05:26:55;;;;;;;2.10;1.90;;;15.80;99.90;;;;;;5044710;28;20078;-42
2023/07/20 05:29:20;;;;;;;2.60;2.40;;;15.80;99.90;;;;;;5043949;28;20078;-42
2023/07/20 05:31:46;;;;;;;2.35;2.15;;;15.80;99.90;;;;;;5045108;28;20032;-43
2023/07/20 05:34:11;;;;;;;3.20;2.88;;;15.90;99.90;;;;;;5044440;28;20223;-42
2023/07/20 05:36:37;;;;;;;2.38;2.17;;;15.90;99.90;;;;;;5044384;28;20025;-42
2023/07/20 05:39:03;;;;;;;1.85;1.75;;;16.00;99.90;;;;;;5044670;28;20688;-42
2023/07/20 05:41:31;;;;;;;1.67;1.58;;;16.20;99.90;;;;;;5048941;28;20047;-42
2023/07/20 05:43:56;;;;;;;1.83;1.67;;;16.30;99.90;;;;;;5048390;28;20021;-42
2023/07/20 05:46:24;;;;;;;1.65;1.50;;;16.50;99.90;;;;;;5048002;28;20031;-42
2023/07/20 05:48:49;;;;;;;1.63;1.52;;;16.70;99.90;;;;;;5048447;28;20453;-40
2023/07/20 05:51:15;;;;;;;1.52;1.42;;;16.90;99.90;;;;;;5047903;28;20131;-42
2023/07/20 05:53:41;;;;;;;1.52;1.42;;;16.90;99.90;;;;;;5048283;28;20025;-42
2023/07/20 05:56:10;;;;;;;2.17;1.58;;;17.10;99.90;;;;;;5048805;28;20033;-42
2023/07/20 05:58:36;;;;;;;1.80;1.38;;;17.20;99.90;;;;;;5047830;28;20029;-43
2023/07/20 06:01:05;;;;;;;1.25;1.15;;;17.20;99.90;;;;;;5048888;28;20138;-43
2023/07/20 06:03:31;;;;;;;1.38;1.20;;;17.30;99.90;;;;;;5047830;28;20063;-41
2023/07/20 06:06:04;;;;;;;1.38;1.27;;;17.20;99.90;;;;;;5049120;28;20064;-42
2023/07/20 06:08:30;;;;;;;1.40;1.30;;;17.20;99.90;;;;;;5049070;28;20049;-42
2023/07/20 06:10:59;;;;;;;1.77;1.30;;;17.10;99.90;;;;;;5048095;28;20048;-42
2023/07/20 06:13:25;;;;;;;1.70;1.52;;;17.10;99.90;;;;;;5048629;28;20132;-41
2023/07/20 06:15:50;;;;;;;1.17;1.08;;;17.10;99.90;;;;;;5048431;28;20131;-42
2023/07/20 06:18:16;;;;;;;1.55;1.25;;;17.10;99.90;;;;;;5048325;28;20024;-41
2023/07/20 06:20:41;;;;;;;1.30;1.20;;;17.10;99.90;;;;;;5047524;28;20052;-42
2023/07/20 06:23:07;;;;;;;1.02;1.02;;;17.00;99.90;;;;;;5048309;28;20025;-42
2023/07/20 06:25:33;;;;;;;1.50;1.40;;;17.10;99.90;;;;;;5047245;28;20025;-41
2023/07/20 06:27:58;;;;;;;1.30;1.20;;;17.00;99.90;;;;;;5048278;28;20029;-42
2023/07/20 06:30:24;;;;;;;1.23;1.20;;;17.00;99.90;;;;;;5048358;28;20094;-42
2023/07/20 06:32:52;;;;;;;1.20;1.10;;;17.00;99.90;;;;;;5046855;28;20021;-42
2023/07/20 06:35:18;;;;;;;2.90;1.02;;;17.00;99.90;;;;;;5047033;28;20055;-42
2023/07/20 06:37:43;;;;;;;1.67;1.13;;;17.00;99.90;;;;;;5047676;28;20505;-42
2023/07/20 06:40:09;;;;;;;1.02;1.00;;;17.00;99.90;;;;;;5046575;28;20028;-42
2023/07/20 06:42:38;;;;;;;0.90;0.90;;;17.10;99.90;;;;;;5047375;28;20116;-41
2023/07/20 06:45:04;;;;;;;1.40;0.90;;;17.10;99.90;;;;;;5047356;28;20021;-42
2023/07/20 06:47:30;;;;;;;2.97;1.00;;;17.10;99.90;;;;;;5046512;28;20048;-42
2023/07/20 06:49:56;;;;;;;1.17;0.77;;;17.10;99.90;;;;;;5047575;28;20028;-42
2023/07/20 06:52:21;;;;;;;1.00;0.90;;;17.10;99.90;;;;;;5046529;28;20016;-41
2023/07/20 06:54:50;;;;;;;1.23;1.02;;;17.20;99.90;;;;;;5046722;28;20069;-41
2023/07/20 06:57:15;;;;;;;0.90;0.80;;;17.20;99.90;;;;;;5047414;28;20399;-42
2023/07/20 06:59:41;;;;;;;0.70;0.70;;;17.30;99.90;;;;;;5046631;28;20158;-42
2023/07/20 07:02:06;;;;;;;0.93;0.70;;;17.30;99.90;;;;;;5047297;28;20017;-42
2023/07/20 07:04:32;;;;;;;2.78;0.70;;;17.30;99.90;;;;;;5047744;28;20032;-42
2023/07/20 07:06:59;;;;;;;1.00;0.90;;;17.40;99.90;;;;;;5046341;28;20087;-42
2023/07/20 07:09:24;;;;;;;0.70;0.70;;;17.50;99.90;;;;;;5047236;28;20144;-42
2023/07/20 07:11:50;;;;;;;0.80;0.63;;;17.60;99.90;;;;;;5047011;28;20564;-42
2023/07/20 07:14:21;;;;;;;0.82;0.60;;;17.70;99.90;;;;;;5046059;28;20035;-42
2023/07/20 07:17:03;;;;;;;0.60;0.60;;;17.70;99.90;;;;;;5046718;28;20087;-42
2023/07/20 07:19:28;;;;;;;1.42;0.60;;;17.80;99.90;;;;;;5047181;28;20063;-42
2023/07/20 07:21:54;;;;;;;0.55;0.55;;;17.90;99.90;;;;;;5046471;28;20021;-42
2023/07/20 07:24:19;;;;;;;0.73;0.73;;;18.00;99.90;;;;;;5046572;28;20059;-43
2023/07/20 07:26:45;;;;;;;0.50;0.50;;;18.10;99.90;;;;;;5046782;28;20017;-42
2023/07/20 07:29:10;;;;;;;1.15;0.90;;;18.10;99.90;;;;;;5046228;28;20036;-41
2023/07/20 07:31:36;;;;;;;0.98;0.77;;;18.20;99.90;;;;;;5046669;28;20814;-40
2023/07/20 07:34:02;;;;;;;0.60;0.60;;;18.20;99.90;;;;;;5046570;28;20155;-41
2023/07/20 07:36:28;;;;;;;0.80;0.60;;;18.30;99.90;;;;;;5046054;28;20108;-41
2023/07/20 07:38:53;;;;;;;0.57;0.57;;;18.40;99.90;;;;;;5046900;28;20112;-41
2023/07/20 07:41:20;;;;;;;0.60;0.60;;;18.40;99.90;;;;;;5046554;28;20107;-41
2023/07/20 07:43:46;;;;;;;0.82;0.70;;;18.40;99.90;;;;;;5046051;28;20032;-42
2023/07/20 07:46:12;;;;;;;0.55;0.55;;;18.50;99.90;;;;;;5046483;28;20035;-42
2023/07/20 07:48:43;;;;;;;1.05;0.60;;;18.50;99.90;;;;;;5045660;28;20033;-42
2023/07/20 07:51:09;;;;;;;0.70;0.50;;;18.60;99.90;;;;;;5046193;28;20029;-42
2023/07/20 07:53:42;;;;;;;0.70;0.70;;;18.60;99.90;;;;;;5046248;28;20041;-42
2023/07/20 07:56:08;;;;;;;1.08;0.50;;;18.60;99.90;;;;;;5045397;28;20036;-42
2023/07/20 07:58:34;;;;;;;0.50;0.47;;;18.60;99.90;;;;;;5046031;28;20033;-41
2023/07/20 08:01:00;;;;;;;1.88;1.08;;;18.60;99.90;;;;;;5046217;28;20060;-42
2023/07/20 08:03:28;;;;;;;1.25;0.77;;;18.60;99.90;;;;;;5044853;28;20827;-42
2023/07/20 08:05:55;;;;;;;0.77;0.70;;;18.60;99.90;;;;;;5046071;28;20025;-42
2023/07/20 08:08:21;;;;;;;0.85;0.70;;;18.60;99.90;;;;;;5045973;28;20850;-42
2023/07/20 08:10:47;;;;;;;0.77;0.50;;;18.60;99.90;;;;;;5044934;28;20116;-42
2023/07/20 08:13:13;;;;;;;1.48;0.60;;;18.60;99.90;;;;;;5046070;28;20021;-42
2023/07/20 08:15:39;;;;;;;0.55;0.55;;;18.60;99.90;;;;;;5045831;28;20040;-43
2023/07/20 08:18:05;;;;;;;0.85;0.40;;;18.60;99.90;;;;;;5045071;28;20039;-42
2023/07/20 08:20:32;;;;;;;0.60;0.50;;;18.70;99.90;;;;;;5035291;28;20029;-42
2023/07/20 08:22:59;;;;;;;0.43;0.43;;;18.70;99.90;;;;;;5046070;28;20388;-41
2023/07/20 08:25:25;;;;;;;0.77;0.77;;;18.70;99.90;;;;;;5044794;28;20025;-41
2023/07/20 08:27:53;;;;;;;1.27;0.60;;;18.80;99.90;;;;;;5045765;28;20025;-41
2023/07/20 08:30:22;;;;;;;0.40;0.40;;;18.80;99.90;;;;;;5045546;28;20055;-41
2023/07/20 08:32:47;;;;;;;0.68;0.50;;;18.90;99.90;;;;;;5045338;28;20145;-42
2023/07/20 08:35:15;;;;;;;0.45;0.45;;;19.00;99.90;;;;;;5045299;28;20524;-42
2023/07/20 08:37:41;;;;;;;0.65;0.50;;;19.00;99.90;;;;;;5044947;28;20497;-42
2023/07/20 08:40:18;;;;;;;0.50;0.50;;;19.20;99.90;;;;;;5044981;28;20039;-42
2023/07/20 08:42:45;;;;;;;0.57;0.40;;;19.30;99.90;;;;;;5025310;28;20032;-42
2023/07/20 08:45:13;;;;;;;1.10;0.50;;;19.40;99.90;;;;;;5039911;28;20382;-41
2023/07/20 08:47:42;;;;;;;0.77;0.40;;;19.40;99.90;;;;;;5045482;28;20025;-41
2023/07/20 08:50:09;;;;;;;0.80;0.32;;;19.50;99.90;;;;;;5044950;28;20107;-42
2023/07/20 08:52:35;;;;;;;0.52;0.50;;;19.50;99.90;;;;;;5044717;28;20028;-41
2023/07/20 08:55:03;;;;;;;0.82;0.68;;;19.50;99.90;;;;;;5044857;28;20068;-42
2023/07/20 08:57:33;;;;;;;0.50;0.38;;;19.40;99.90;;;;;;5045628;28;20164;-41
2023/07/20 09:00:04;;;;;;;0.52;0.50;;;19.30;99.90;;;;;;5044331;28;20021;-41
2023/07/20 09:02:33;;;;;;;0.88;0.52;;;19.30;99.90;;;;;;5045142;28;20110;-41
2023/07/20 09:04:58;;;;;;;1.13;0.50;;;19.30;99.90;;;;;;5045315;28;20021;-43
2023/07/20 09:07:25;;;;;;;0.63;0.60;;;19.20;99.90;;;;;;5044901;28;20028;-42
2023/07/20 09:09:50;;;;;;;0.40;0.40;;;19.30;99.90;;;;;;5044659;28;20020;-42
2023/07/20 09:12:16;;;;;;;0.50;0.50;;;19.30;99.90;;;;;;5044536;28;20086;-43
2023/07/20 09:14:45;;;;;;;0.40;0.40;;;19.40;99.90;;;;;;5043617;28;20040;-42
2023/07/20 09:17:14;;;;;;;0.43;0.43;;;19.40;99.90;;;;;;5045111;28;20060;-42
2023/07/20 09:19:47;;;;;;;0.38;0.38;;;19.50;99.90;;;;;;5044889;28;20096;-42
2023/07/20 09:22:12;;;;;;;0.40;0.40;;;19.80;99.90;;;;;;5040874;28;20108;-42
2023/07/20 09:24:38;;;;;;;1.15;0.65;;;20.00;99.90;;;;;;5044726;28;20111;-43
2023/07/20 09:27:04;;;;;;;1.23;0.60;;;20.20;99.90;;;;;;5044451;28;20750;-42
2023/07/20 09:29:30;;;;;;;0.65;0.50;;;20.30;99.90;;;;;;5044332;28;20048;-42
2023/07/20 09:32:03;;;;;;;0.50;0.50;;;20.50;99.90;;;;;;5045082;28;20087;-42
2023/07/20 09:34:33;;;;;;;0.95;0.30;;;20.70;99.90;;;;;;5044327;28;20531;-42
2023/07/20 09:37:00;;;;;;;0.38;0.38;;;20.80;99.90;;;;;;5044260;28;20115;-42
2023/07/20 09:39:26;;;;;;;0.57;0.43;;;21.00;99.90;;;;;;5045041;28;20025;-42
2023/07/20 09:41:52;;;;;;;0.95;0.50;;;21.10;99.90;;;;;;5043791;28;20504;-41
2023/07/20 09:44:18;;;;;;;0.73;0.40;;;21.20;99.90;;;;;;5044641;28;20044;-41
2023/07/20 09:46:56;;;;;;;0.30;0.30;;;21.20;99.90;;;;;;5044134;28;20481;-42
2023/07/20 09:49:22;;;;;;;0.95;0.47;;;21.30;99.90;;;;;;5024389;28;20128;-41
2023/07/20 09:51:48;;;;;;;0.95;0.57;;;21.40;99.70;;;;;;5034666;28;20100;-42
2023/07/20 09:54:15;;;;;;;0.77;0.52;;;21.30;99.50;;;;;;5044840;28;20083;-42
2023/07/20 09:56:41;;;;;;;0.55;0.30;;;21.30;99.60;;;;;;5043315;28;20536;-42
2023/07/20 09:59:07;;;;;;;0.40;0.40;;;21.30;99.60;;;;;;5044782;28;20045;-43
2023/07/20 10:01:34;;;;;;;0.47;0.47;;;21.30;99.70;;;;;;5044560;28;20029;-42
2023/07/20 10:04:06;;;;;;;0.60;0.40;;;21.20;99.60;;;;;;5033447;28;20040;-41
2023/07/20 10:06:34;;;;;;;0.40;0.40;;;21.20;99.60;;;;;;5044599;28;20108;-42
2023/07/20 10:09:03;;;;;;;0.60;0.50;;;21.20;99.50;;;;;;5044425;28;20053;-42
2023/07/20 10:11:38;;;;;;;0.60;0.40;;;21.20;99.40;;;;;;5043916;28;20036;-42
2023/07/20 10:14:11;;;;;;;0.40;0.40;;;21.30;99.30;;;;;;5043776;28;20103;-42
2023/07/20 10:16:47;;;;;;;1.05;0.38;;;21.30;99.20;;;;;;5043929;28;20028;-42
2023/07/20 10:19:26;;;;;;;0.65;0.60;;;21.40;99.10;;;;;;5042404;28;20036;-42
2023/07/20 10:22:28;;;;;;;0.73;0.60;;;21.50;98.90;;;;;;5044067;28;20025;-42
2023/07/20 10:24:56;;;;;;;0.75;0.50;;;21.50;98.90;;;;;;5035538;28;20083;-42
2023/07/20 10:27:24;;;;;;;1.00;0.50;;;21.60;98.80;;;;;;5047254;28;20025;-41
2023/07/20 10:29:51;;;;;;;0.30;0.30;;;21.70;98.70;;;;;;5047656;28;20033;-41
2023/07/20 10:32:18;;;;;;;0.77;0.68;;;21.70;98.70;;;;;;5046830;28;20021;-42
2023/07/20 10:34:51;;;;;;;0.93;0.60;;;21.70;98.10;;;;;;5048198;28;20035;-42
2023/07/20 10:37:46;;;;;;;0.60;0.50;;;21.60;98.10;;;;;;5048152;28;20425;-43
2023/07/20 10:40:24;;;;;;;0.40;0.40;;;21.60;98.20;;;;;;5036795;28;20033;-42
2023/07/20 10:42:50;;;;;;;0.70;0.60;;;21.60;98.20;;;;;;5047957;28;20036;-42
2023/07/20 10:45:17;;;;;;;0.40;0.40;;;21.60;98.30;;;;;;5047280;28;20476;-41
2023/07/20 10:47:58;;;;;;;0.73;0.60;;;21.60;98.20;;;;;;5047885;28;20032;-42
2023/07/20 10:50:24;;;;;;;0.50;0.40;;;21.60;98.20;;;;;;5047498;28;20024;-41
2023/07/20 10:53:17;;;;;;;0.70;0.50;;;21.70;98.10;;;;;;5047165;28;20021;-42
2023/07/20 10:55:44;;;;;;;1.15;0.50;;;21.80;97.90;;;;;;5037322;28;20051;-41
2023/07/20 10:58:23;;;;;;;0.52;0.40;;;21.80;97.90;;;;;;5047829;28;20103;-42
2023/07/20 11:01:17;;;;;;;1.00;0.65;;;21.80;97.90;;;;;;5046783;28;20020;-42
2023/07/20 11:03:50;;;;;;;0.68;0.43;;;21.80;97.90;;;;;;5045356;28;20052;-41
2023/07/20 11:06:28;;;;;;;;;;;21.80;98.00;;;;;;5047477;28;20036;-40
2023/07/20 11:09:15;;;;;;;0.93;0.70;;;21.80;97.90;;;;;;5046549;28;19917;-41
2023/07/20 11:11:48;;;;;;;0.50;0.50;;;21.80;97.70;;;;;;5046924;28;20028;-42
2023/07/20 11:14:26;;;;;;;0.75;0.70;;;21.80;97.80;;;;;;5046551;28;20071;-42
2023/07/20 11:16:52;;;;;;;1.00;0.60;;;21.70;97.80;;;;;;5047619;28;20029;-42
2023/07/20 11:19:26;;;;;;;0.60;0.60;;;21.80;97.70;;;;;;5046575;28;20021;-41
2023/07/20 11:21:53;;;;;;;0.77;0.38;;;21.80;97.70;;;;;;5046120;28;20072;-42
2023/07/20 11:24:20;;;;;;;0.77;0.40;;;21.80;97.70;;;;;;5046783;28;20108;-41
2023/07/20 11:26:53;;;;;;;1.95;0.40;;;21.80;97.60;;;;;;5035597;28;20035;-41
2023/07/20 11:29:23;;;;;;;0.70;0.45;;;21.80;97.40;;;;;;5047356;28;20377;-42
2023/07/20 11:31:49;;;;;;;1.85;0.40;;;21.80;97.30;;;;;;5046863;28;20030;-42
2023/07/20 11:34:19;;;;;;;0.43;0.40;;;21.80;97.30;;;;;;5046246;28;20033;-42
2023/07/20 11:36:47;;;;;;;0.73;0.50;;;21.70;97.20;;;;;;5047250;28;20032;-42
2023/07/20 11:39:16;;;;;;;0.73;0.50;;;21.70;97.20;;;;;;5045956;28;20021;-42
2023/07/20 11:41:47;;;;;;;0.65;0.57;;;21.70;97.20;;;;;;5045142;28;20071;-42
2023/07/20 11:44:14;;;;;;;0.98;0.50;;;21.60;96.10;;;;;;5046668;28;20685;-41
2023/07/20 11:46:42;;;;;;;2.10;0.40;;;21.50;96.30;;;;;;5046398;28;20074;-42
2023/07/20 11:49:08;;;;;;;0.73;0.60;;;21.40;96.70;;;;;;5046109;28;20062;-42
2023/07/20 11:51:34;;;;;;;0.40;0.40;;;21.40;96.90;;;;;;5045810;28;20029;-42
2023/07/20 11:54:02;;;;;;;0.60;0.50;;;21.40;97.00;;;;;;5046383;28;20029;-42
2023/07/20 11:56:28;;;;;;;1.10;0.60;;;21.40;97.00;;;;;;5045680;28;20043;-43
2023/07/20 11:58:59;;;;;;;0.47;0.47;;;21.50;97.00;;;;;;5046069;28;20028;-42
2023/07/20 12:01:29;;;;;;;0.70;0.50;;;21.70;97.00;;;;;;5046343;28;20035;-42
2023/07/20 12:03:59;;;;;;;0.57;0.52;;;21.90;97.00;;;;;;5045271;28;20022;-41
2023/07/20 12:06:26;;;;;;;1.65;0.50;;;22.00;96.90;;;;;;5046666;28;20372;-45
2023/07/20 12:08:58;;;;;;;0.95;0.60;;;22.10;96.90;;;;;;5045843;28;20106;-42
2023/07/20 12:11:56;;;;;;;0.57;0.40;;;22.30;96.80;;;;;;5046534;28;20020;-41
2023/07/20 12:14:25;;;;;;;1.17;0.63;;;22.40;96.40;;;;;;5046088;28;20037;-43
2023/07/20 12:16:54;;;;;;;0.63;0.60;;;22.30;95.60;;;;;;5045037;28;20116;-42
2023/07/20 12:19:20;;;;;;;1.35;0.68;;;22.30;95.80;;;;;;5046169;28;20029;-43
2023/07/20 12:21:46;;;;;;;0.82;0.60;;;22.30;95.40;;;;;;5045602;28;20027;-42
2023/07/20 12:24:11;;;;;;;0.70;0.70;;;22.30;95.20;;;;;;5045121;28;20064;-42
2023/07/20 12:26:40;;;;;;;0.70;0.68;;;22.20;95.10;;;;;;5045474;28;20358;-42
2023/07/20 12:29:06;;;;;;;0.60;0.55;;;22.20;93.90;;;;;;5045284;28;20025;-43
2023/07/20 12:31:39;;;;;;;0.77;0.50;;;22.20;94.20;;;;;;5044740;28;20549;-42
2023/07/20 12:34:05;;;;;;;0.80;0.60;;;22.10;94.30;;;;;;5035151;28;20108;-42
2023/07/20 12:36:31;;;;;;;0.55;0.43;;;22.10;94.50;;;;;;5045827;28;20021;-42
2023/07/20 12:38:58;;;;;;;0.60;0.50;;;22.20;94.60;;;;;;5044638;28;20040;-42
2023/07/20 12:41:23;;;;;;;0.38;0.38;;;22.30;94.70;;;;;;5045228;28;20025;-42
2023/07/20 12:43:49;;;;;;;0.30;0.30;;;22.40;94.70;;;;;;5045818;28;20028;-42
2023/07/20 12:46:18;;;;;;;0.30;0.30;;;22.50;94.60;;;;;;5044947;28;20033;-42
2023/07/20 12:48:43;;;;;;;1.60;0.60;;;22.70;94.20;;;;;;5044847;28;20031;-42
2023/07/20 12:51:10;;;;;;;0.32;0.32;;;23.00;93.80;;;;;;5044889;28;20025;-42
2023/07/20 12:53:35;;;;;;;0.40;0.40;;;23.20;93.30;;;;;;5044500;28;20025;-41